sensor_id;sensor_type;location;lat;lon;timestamp;pressure;altitude;pressure_sealevel;temperature;humidity
3254;BME280;1639;42.804;23.342;2023-05-09T00:01:12;73127.41;;;-148.52;100.00
3254;BME280;1639;42.804;23.342;2023-05-09T00:03:38;73127.41;;;-148.52;100.00
3254;BME280;1639;42.804;23.342;2023-05-09T00:06:05;73137.75;;;-148.52;100.00
3254;BME280;1639;42.804;23.342;2023-05-09T00:08:31;73129.47;;;-148.52;100.00
3254;BME280;1639;42.804;23.342;2023-05-09T00:10:56;73125.34;;;-148.52;100.00
3254;BME280;1639;42.804;23.342;2023-05-09T00:13:22;73121.19;;;-148.52;100.00
3254;BME280;1639;42.804;23.342;2023-05-09T00:15:48;73110.84;;;-148.52;100.00
3254;BME280;1639;42.804;23.342;2023-05-09T00:18:14;73108.78;;;-148.52;100.00
3254;BME280;1639;42.804;23.342;2023-05-09T00:20:40;73088.09;;;-148.52;100.00
3254;BME280;1639;42.804;23.342;2023-05-09T00:23:06;73115.00;;;-148.52;100.00
3254;BME280;1639;42.804;23.342;2023-05-09T00:25:31;73131.53;;;-148.52;100.00
3254;BME280;1639;42.804;23.342;2023-05-09T00:27:56;73123.25;;;-148.52;100.00
3254;BME280;1639;42.804;23.342;2023-05-09T00:30:22;73123.25;;;-148.52;100.00
3254;BME280;1639;42.804;23.342;2023-05-09T00:32:47;73129.47;;;-148.52;100.00
3254;BME280;1639;42.804;23.342;2023-05-09T00:35:13;73146.00;;;-148.52;100.00
3254;BME280;1639;42.804;23.342;2023-05-09T00:37:38;73154.28;;;-148.52;100.00
3254;BME280;1639;42.804;23.342;2023-05-09T00:40:05;73150.16;;;-148.52;100.00
3254;BME280;1639;42.804;23.342;2023-05-09T00:42:32;73164.63;;;-148.52;100.00
3254;BME280;1639;42.804;23.342;2023-05-09T00:44:57;73154.28;;;-148.52;100.00
3254;BME280;1639;42.804;23.342;2023-05-09T00:47:23;73164.63;;;-148.52;100.00
3254;BME280;1639;42.804;23.342;2023-05-09T00:49:48;73158.44;;;-148.52;100.00
3254;BME280;1639;42.804;23.342;2023-05-09T00:52:14;73179.09;;;-148.52;100.00
3254;BME280;1639;42.804;23.342;2023-05-09T00:54:41;73187.38;;;-148.52;100.00
3254;BME280;1639;42.804;23.342;2023-05-09T00:57:07;73168.75;;;-148.52;100.00
3254;BME280;1639;42.804;23.342;2023-05-09T00:59:33;73183.25;;;-148.52;100.00
3254;BME280;1639;42.804;23.342;2023-05-09T01:01:58;73185.31;;;-148.52;100.00
3254;BME280;1639;42.804;23.342;2023-05-09T01:04:24;73166.69;;;-148.52;100.00
3254;BME280;1639;42.804;23.342;2023-05-09T01:09:23;73160.50;;;-148.52;100.00
3254;BME280;1639;42.804;23.342;2023-05-09T01:20:25;73185.31;;;-148.52;100.00
3254;BME280;1639;42.804;23.342;2023-05-09T01:23:16;73181.19;;;-148.52;100.00
3254;BME280;1639;42.804;23.342;2023-05-09T01:26:02;73170.84;;;-148.52;100.00
3254;BME280;1639;42.804;23.342;2023-05-09T01:28:35;73191.53;;;-148.52;100.00
3254;BME280;1639;42.804;23.342;2023-05-09T01:31:04;73189.44;;;-148.52;100.00
3254;BME280;1639;42.804;23.342;2023-05-09T01:33:35;73199.78;;;-148.52;100.00
3254;BME280;1639;42.804;23.342;2023-05-09T01:36:05;73197.72;;;-148.52;100.00
3254;BME280;1639;42.804;23.342;2023-05-09T01:38:33;73189.44;;;-148.52;100.00
3254;BME280;1639;42.804;23.342;2023-05-09T01:41:01;73179.09;;;-148.52;100.00
3254;BME280;1639;42.804;23.342;2023-05-09T01:43:29;73189.44;;;-148.52;100.00
3254;BME280;1639;42.804;23.342;2023-05-09T01:45:58;73212.19;;;-148.52;100.00
3254;BME280;1639;42.804;23.342;2023-05-09T01:48:24;73199.78;;;-148.52;100.00
3254;BME280;1639;42.804;23.342;2023-05-09T01:50:53;73183.25;;;-148.52;100.00
3254;BME280;1639;42.804;23.342;2023-05-09T01:53:19;73193.59;;;-148.52;100.00
3254;BME280;1639;42.804;23.342;2023-05-09T01:55:47;73197.72;;;-148.52;100.00
3254;BME280;1639;42.804;23.342;2023-05-09T01:58:14;73193.59;;;-148.52;100.00
3254;BME280;1639;42.804;23.342;2023-05-09T02:00:41;73189.44;;;-148.52;100.00
3254;BME280;1639;42.804;23.342;2023-05-09T02:03:08;73177.03;;;-148.52;100.00
3254;BME280;1639;42.804;23.342;2023-05-09T02:05:33;73172.91;;;-148.52;100.00
3254;BME280;1639;42.804;23.342;2023-05-09T02:08:00;73172.91;;;-148.52;100.00
3254;BME280;1639;42.804;23.342;2023-05-09T02:10:27;73168.75;;;-148.52;100.00
3254;BME280;1639;42.804;23.342;2023-05-09T02:12:53;73185.31;;;-148.52;100.00
3254;BME280;1639;42.804;23.342;2023-05-09T02:15:20;73170.84;;;-148.52;100.00
3254;BME280;1639;42.804;23.342;2023-05-09T02:17:46;73179.09;;;-148.52;100.00
3254;BME280;1639;42.804;23.342;2023-05-09T02:20:11;73162.56;;;-148.52;100.00
3254;BME280;1639;42.804;23.342;2023-05-09T02:22:39;73166.69;;;-148.52;100.00
3254;BME280;1639;42.804;23.342;2023-05-09T02:25:06;73162.56;;;-148.52;100.00
3254;BME280;1639;42.804;23.342;2023-05-09T02:27:33;73187.38;;;-148.52;100.00
3254;BME280;1639;42.804;23.342;2023-05-09T02:30:01;73166.69;;;-148.52;100.00
3254;BME280;1639;42.804;23.342;2023-05-09T02:32:30;73164.63;;;-148.52;100.00
3254;BME280;1639;42.804;23.342;2023-05-09T02:34:57;73179.09;;;-148.52;100.00
3254;BME280;1639;42.804;23.342;2023-05-09T02:37:25;73154.28;;;-148.52;100.00
3254;BME280;1639;42.804;23.342;2023-05-09T02:39:51;73154.28;;;-148.52;100.00
3254;BME280;1639;42.804;23.342;2023-05-09T02:42:21;73185.31;;;-148.52;100.00
3254;BME280;1639;42.804;23.342;2023-05-09T02:44:46;73216.34;;;-148.52;100.00
3254;BME280;1639;42.804;23.342;2023-05-09T02:47:12;73218.41;;;-148.52;100.00
3254;BME280;1639;42.804;23.342;2023-05-09T02:49:37;73193.59;;;-148.52;100.00
3254;BME280;1639;42.804;23.342;2023-05-09T02:52:03;73174.97;;;-148.52;100.00
3254;BME280;1639;42.804;23.342;2023-05-09T02:54:28;73191.53;;;-148.52;100.00
3254;BME280;1639;42.804;23.342;2023-05-09T02:56:54;73170.84;;;-148.52;100.00
3254;BME280;1639;42.804;23.342;2023-05-09T02:59:19;73170.84;;;-148.52;100.00
3254;BME280;1639;42.804;23.342;2023-05-09T03:01:45;73197.72;;;-148.52;100.00
3254;BME280;1639;42.804;23.342;2023-05-09T03:04:10;73195.66;;;-148.52;100.00
3254;BME280;1639;42.804;23.342;2023-05-09T03:06:36;73206.00;;;-148.52;100.00
3254;BME280;1639;42.804;23.342;2023-05-09T03:09:01;73191.53;;;-148.52;100.00
3254;BME280;1639;42.804;23.342;2023-05-09T03:11:27;73193.59;;;-148.52;100.00
3254;BME280;1639;42.804;23.342;2023-05-09T03:13:53;73199.78;;;-148.52;100.00
3254;BME280;1639;42.804;23.342;2023-05-09T03:16:19;73218.41;;;-148.52;100.00
3254;BME280;1639;42.804;23.342;2023-05-09T03:18:44;73201.84;;;-148.52;100.00
3254;BME280;1639;42.804;23.342;2023-05-09T03:21:10;73206.00;;;-148.52;100.00
3254;BME280;1639;42.804;23.342;2023-05-09T03:23:36;73208.06;;;-148.52;100.00
3254;BME280;1639;42.804;23.342;2023-05-09T03:26:01;73208.06;;;-148.52;100.00
3254;BME280;1639;42.804;23.342;2023-05-09T03:28:27;73187.38;;;-148.52;100.00
3254;BME280;1639;42.804;23.342;2023-05-09T03:30:53;73170.84;;;-148.52;100.00
3254;BME280;1639;42.804;23.342;2023-05-09T03:33:18;73166.69;;;-148.52;100.00
3254;BME280;1639;42.804;23.342;2023-05-09T03:35:43;73162.56;;;-148.52;100.00
3254;BME280;1639;42.804;23.342;2023-05-09T03:38:09;73146.00;;;-148.52;100.00
3254;BME280;1639;42.804;23.342;2023-05-09T03:40:34;73143.94;;;-148.52;100.00
3254;BME280;1639;42.804;23.342;2023-05-09T03:42:59;73129.47;;;-148.52;100.00
3254;BME280;1639;42.804;23.342;2023-05-09T03:45:25;73112.91;;;-148.52;100.00
3254;BME280;1639;42.804;23.342;2023-05-09T03:47:50;73117.06;;;-148.52;100.00
3254;BME280;1639;42.804;23.342;2023-05-09T03:50:16;73119.13;;;-148.52;100.00
3254;BME280;1639;42.804;23.342;2023-05-09T03:52:41;73187.38;;;-148.52;100.00
3254;BME280;1639;42.804;23.342;2023-05-09T03:55:07;73214.28;;;-148.52;100.00
3254;BME280;1639;42.804;23.342;2023-05-09T03:57:34;73210.13;;;-148.52;100.00
3254;BME280;1639;42.804;23.342;2023-05-09T03:59:59;73228.75;;;-148.52;100.00
3254;BME280;1639;42.804;23.342;2023-05-09T04:02:25;73224.63;;;-148.52;100.00
3254;BME280;1639;42.804;23.342;2023-05-09T04:04:50;73218.41;;;-148.52;100.00
3254;BME280;1639;42.804;23.342;2023-05-09T04:07:17;73228.75;;;-148.52;100.00
3254;BME280;1639;42.804;23.342;2023-05-09T04:09:43;73241.16;;;-148.52;100.00
3254;BME280;1639;42.804;23.342;2023-05-09T04:12:08;73224.63;;;-148.52;100.00
3254;BME280;1639;42.804;23.342;2023-05-09T04:14:33;73232.88;;;-148.52;100.00
3254;BME280;1639;42.804;23.342;2023-05-09T04:16:59;73241.16;;;-148.52;100.00
3254;BME280;1639;42.804;23.342;2023-05-09T04:19:24;73239.09;;;-148.52;100.00
3254;BME280;1639;42.804;23.342;2023-05-09T04:21:50;73224.63;;;-148.52;100.00
3254;BME280;1639;42.804;23.342;2023-05-09T04:24:15;73228.75;;;-148.52;100.00
3254;BME280;1639;42.804;23.342;2023-05-09T04:26:41;73232.88;;;-148.52;100.00
3254;BME280;1639;42.804;23.342;2023-05-09T04:29:07;73247.38;;;-148.52;100.00
3254;BME280;1639;42.804;23.342;2023-05-09T04:31:32;73239.09;;;-148.52;100.00
3254;BME280;1639;42.804;23.342;2023-05-09T04:33:57;73224.63;;;-148.52;100.00
3254;BME280;1639;42.804;23.342;2023-05-09T04:36:23;73230.81;;;-148.52;100.00
3254;BME280;1639;42.804;23.342;2023-05-09T04:38:48;73230.81;;;-148.52;100.00
3254;BME280;1639;42.804;23.342;2023-05-09T04:41:14;73224.63;;;-148.52;100.00
3254;BME280;1639;42.804;23.342;2023-05-09T04:43:40;73232.88;;;-148.52;100.00
3254;BME280;1639;42.804;23.342;2023-05-09T04:46:05;73226.69;;;-148.52;100.00
3254;BME280;1639;42.804;23.342;2023-05-09T04:48:31;73220.47;;;-148.52;100.00
3254;BME280;1639;42.804;23.342;2023-05-09T04:50:57;73199.78;;;-148.52;100.00
3254;BME280;1639;42.804;23.342;2023-05-09T04:53:22;73226.69;;;-148.52;100.00
3254;BME280;1639;42.804;23.342;2023-05-09T04:55:47;73220.47;;;-148.52;100.00
3254;BME280;1639;42.804;23.342;2023-05-09T04:58:13;73191.53;;;-148.52;100.00
3254;BME280;1639;42.804;23.342;2023-05-09T05:00:38;73203.94;;;-148.52;100.00
3254;BME280;1639;42.804;23.342;2023-05-09T05:03:04;73183.25;;;-148.52;100.00
3254;BME280;1639;42.804;23.342;2023-05-09T05:05:29;73189.44;;;-148.52;100.00
3254;BME280;1639;42.804;23.342;2023-05-09T05:07:55;73214.28;;;-148.52;100.00
3254;BME280;1639;42.804;23.342;2023-05-09T05:10:20;73201.84;;;-148.52;100.00
3254;BME280;1639;42.804;23.342;2023-05-09T05:12:46;73201.84;;;-148.52;100.00
3254;BME280;1639;42.804;23.342;2023-05-09T05:15:11;73162.56;;;-148.52;100.00
3254;BME280;1639;42.804;23.342;2023-05-09T05:17:37;73166.69;;;-148.52;100.00
3254;BME280;1639;42.804;23.342;2023-05-09T05:20:02;73154.28;;;-148.52;100.00
3254;BME280;1639;42.804;23.342;2023-05-09T05:22:31;73139.81;;;-148.52;100.00
3254;BME280;1639;42.804;23.342;2023-05-09T05:24:56;73139.81;;;-148.52;100.00
3254;BME280;1639;42.804;23.342;2023-05-09T05:27:21;73125.34;;;-148.52;100.00
3254;BME280;1639;42.804;23.342;2023-05-09T05:29:47;73117.06;;;-148.52;100.00
3254;BME280;1639;42.804;23.342;2023-05-09T05:32:12;73106.72;;;-148.52;100.00
3254;BME280;1639;42.804;23.342;2023-05-09T05:34:38;73098.44;;;-148.52;100.00
3254;BME280;1639;42.804;23.342;2023-05-09T05:37:04;73117.06;;;-148.52;100.00
3254;BME280;1639;42.804;23.342;2023-05-09T05:39:29;73127.41;;;-148.52;100.00
3254;BME280;1639;42.804;23.342;2023-05-09T05:41:54;73139.81;;;-148.52;100.00
3254;BME280;1639;42.804;23.342;2023-05-09T05:44:20;73133.59;;;-148.52;100.00
3254;BME280;1639;42.804;23.342;2023-05-09T05:46:45;73135.66;;;-148.52;100.00
3254;BME280;1639;42.804;23.342;2023-05-09T05:49:11;73129.47;;;-148.52;100.00
3254;BME280;1639;42.804;23.342;2023-05-09T05:51:36;73129.47;;;-148.52;100.00
3254;BME280;1639;42.804;23.342;2023-05-09T05:54:02;73129.47;;;-148.52;100.00
3254;BME280;1639;42.804;23.342;2023-05-09T05:56:28;73100.50;;;-148.52;100.00
3254;BME280;1639;42.804;23.342;2023-05-09T05:58:53;73125.34;;;-148.52;100.00
3254;BME280;1639;42.804;23.342;2023-05-09T06:01:19;73117.06;;;-148.52;100.00
3254;BME280;1639;42.804;23.342;2023-05-09T06:03:44;73106.72;;;-148.52;100.00
3254;BME280;1639;42.804;23.342;2023-05-09T06:06:09;73115.00;;;-148.52;100.00
3254;BME280;1639;42.804;23.342;2023-05-09T06:08:35;73104.66;;;-148.52;100.00
3254;BME280;1639;42.804;23.342;2023-05-09T06:11:00;73094.31;;;-148.52;100.00
3254;BME280;1639;42.804;23.342;2023-05-09T06:13:26;73094.31;;;-148.52;100.00
3254;BME280;1639;42.804;23.342;2023-05-09T06:15:54;73086.03;;;-148.52;100.00
3254;BME280;1639;42.804;23.342;2023-05-09T06:18:21;73092.25;;;-148.52;100.00
3254;BME280;1639;42.804;23.342;2023-05-09T06:20:46;73090.16;;;-148.52;100.00
3254;BME280;1639;42.804;23.342;2023-05-09T06:23:11;73088.09;;;-148.52;100.00
3254;BME280;1639;42.804;23.342;2023-05-09T06:25:37;73088.09;;;-148.52;100.00
3254;BME280;1639;42.804;23.342;2023-05-09T06:28:02;73088.09;;;-148.52;100.00
3254;BME280;1639;42.804;23.342;2023-05-09T06:30:28;73117.06;;;-148.52;100.00
3254;BME280;1639;42.804;23.342;2023-05-09T06:32:53;73121.19;;;-148.52;100.00
3254;BME280;1639;42.804;23.342;2023-05-09T06:35:19;73112.91;;;-148.52;100.00
3254;BME280;1639;42.804;23.342;2023-05-09T06:37:44;73112.91;;;-148.52;100.00
3254;BME280;1639;42.804;23.342;2023-05-09T06:40:10;73131.53;;;-148.52;100.00
3254;BME280;1639;42.804;23.342;2023-05-09T06:42:35;73121.19;;;-148.52;100.00
3254;BME280;1639;42.804;23.342;2023-05-09T06:45:01;73137.75;;;-148.52;100.00
3254;BME280;1639;42.804;23.342;2023-05-09T06:47:26;73108.78;;;-148.52;100.00
3254;BME280;1639;42.804;23.342;2023-05-09T06:49:51;73112.91;;;-148.52;100.00
3254;BME280;1639;42.804;23.342;2023-05-09T06:52:17;73092.25;;;-148.52;100.00
3254;BME280;1639;42.804;23.342;2023-05-09T06:54:42;73110.84;;;-148.52;100.00
3254;BME280;1639;42.804;23.342;2023-05-09T06:57:08;73100.50;;;-148.52;100.00
3254;BME280;1639;42.804;23.342;2023-05-09T06:59:33;73092.25;;;-148.52;100.00
3254;BME280;1639;42.804;23.342;2023-05-09T07:01:58;73075.69;;;-148.52;100.00
3254;BME280;1639;42.804;23.342;2023-05-09T07:04:24;73077.75;;;-148.52;100.00
3254;BME280;1639;42.804;23.342;2023-05-09T07:06:49;73071.56;;;-148.52;100.00
3254;BME280;1639;42.804;23.342;2023-05-09T07:09:15;73052.94;;;-148.52;100.00
3254;BME280;1639;42.804;23.342;2023-05-09T07:11:44;73059.16;;;-148.52;100.00
3254;BME280;1639;42.804;23.342;2023-05-09T07:14:10;73032.25;;;-148.52;100.00
3254;BME280;1639;42.804;23.342;2023-05-09T07:16:35;73030.19;;;-148.52;100.00
3254;BME280;1639;42.804;23.342;2023-05-09T07:19:00;73021.91;;;-148.52;100.00
3254;BME280;1639;42.804;23.342;2023-05-09T07:21:26;73011.56;;;-148.52;100.00
3254;BME280;1639;42.804;23.342;2023-05-09T07:23:51;72978.50;;;-148.52;100.00
3254;BME280;1639;42.804;23.342;2023-05-09T07:26:17;72986.75;;;-148.52;100.00
3254;BME280;1639;42.804;23.342;2023-05-09T07:28:42;73013.66;;;-148.52;100.00
3254;BME280;1639;42.804;23.342;2023-05-09T07:31:07;73017.78;;;-148.52;100.00
3254;BME280;1639;42.804;23.342;2023-05-09T07:33:33;73034.34;;;-148.52;100.00
3254;BME280;1639;42.804;23.342;2023-05-09T07:35:59;73038.47;;;-148.52;100.00
3254;BME280;1639;42.804;23.342;2023-05-09T07:38:24;73059.16;;;-148.52;100.00
3254;BME280;1639;42.804;23.342;2023-05-09T07:40:50;73057.09;;;-148.52;100.00
3254;BME280;1639;42.804;23.342;2023-05-09T07:43:17;73046.75;;;-148.52;100.00
3254;BME280;1639;42.804;23.342;2023-05-09T07:45:43;73067.41;;;-148.52;100.00
3254;BME280;1639;42.804;23.342;2023-05-09T07:48:08;73079.84;;;-148.52;100.00
3254;BME280;1639;42.804;23.342;2023-05-09T07:50:34;73050.88;;;-148.52;100.00
3254;BME280;1639;42.804;23.342;2023-05-09T07:52:59;73048.81;;;-148.52;100.00
3254;BME280;1639;42.804;23.342;2023-05-09T07:55:25;73061.22;;;-148.52;100.00
3254;BME280;1639;42.804;23.342;2023-05-09T07:57:50;73083.97;;;-148.52;100.00
3254;BME280;1639;42.804;23.342;2023-05-09T08:00:16;73061.22;;;-148.52;100.00
3254;BME280;1639;42.804;23.342;2023-05-09T08:02:42;73092.25;;;-148.52;100.00
3254;BME280;1639;42.804;23.342;2023-05-09T08:05:08;73083.97;;;-148.52;100.00
3254;BME280;1639;42.804;23.342;2023-05-09T08:07:35;73100.50;;;-148.52;100.00
3254;BME280;1639;42.804;23.342;2023-05-09T08:10:01;73100.50;;;-148.52;100.00
3254;BME280;1639;42.804;23.342;2023-05-09T08:12:26;73096.38;;;-148.52;100.00
3254;BME280;1639;42.804;23.342;2023-05-09T08:14:52;73096.38;;;-148.52;100.00
3254;BME280;1639;42.804;23.342;2023-05-09T08:17:17;73123.25;;;-148.52;100.00
3254;BME280;1639;42.804;23.342;2023-05-09T08:19:42;73100.50;;;-148.52;100.00
3254;BME280;1639;42.804;23.342;2023-05-09T08:22:08;73135.66;;;-148.52;100.00
3254;BME280;1639;42.804;23.342;2023-05-09T08:24:33;73104.66;;;-148.52;100.00
3254;BME280;1639;42.804;23.342;2023-05-09T08:26:59;73129.47;;;-148.52;100.00
3254;BME280;1639;42.804;23.342;2023-05-09T08:29:24;73121.19;;;-148.52;100.00
3254;BME280;1639;42.804;23.342;2023-05-09T08:31:50;73079.84;;;-148.52;100.00
3254;BME280;1639;42.804;23.342;2023-05-09T08:34:15;73059.16;;;-148.52;100.00
3254;BME280;1639;42.804;23.342;2023-05-09T08:36:41;73038.47;;;-148.52;100.00
3254;BME280;1639;42.804;23.342;2023-05-09T08:39:09;72955.75;;;-148.52;100.00
3254;BME280;1639;42.804;23.342;2023-05-09T08:41:35;72924.72;;;-148.52;100.00
3254;BME280;1639;42.804;23.342;2023-05-09T08:44:01;72918.50;;;-148.52;100.00
3254;BME280;1639;42.804;23.342;2023-05-09T08:46:35;72856.47;;;-148.52;100.00
3254;BME280;1639;42.804;23.342;2023-05-09T08:49:05;72860.59;;;-148.52;100.00
3254;BME280;1639;42.804;23.342;2023-05-09T08:51:34;72935.06;;;-148.52;78.58
3254;BME280;1639;42.804;23.342;2023-05-09T08:54:00;72935.06;;;-148.52;75.29
3254;BME280;1639;42.804;23.342;2023-05-09T08:56:25;72951.59;;;-148.52;76.74
3254;BME280;1639;42.804;23.342;2023-05-09T08:58:52;72972.28;;;-148.52;78.39
3254;BME280;1639;42.804;23.342;2023-05-09T09:01:18;72955.75;;;-148.52;76.80
3254;BME280;1639;42.804;23.342;2023-05-09T09:03:45;72926.78;;;-148.52;79.93
3254;BME280;1639;42.804;23.342;2023-05-09T09:06:14;72916.44;;;-148.52;75.36
3254;BME280;1639;42.804;23.342;2023-05-09T09:08:41;72875.06;;;-148.52;74.92
3254;BME280;1639;42.804;23.342;2023-05-09T09:11:10;72889.56;;;-148.52;75.19
3254;BME280;1639;42.804;23.342;2023-05-09T09:13:39;72852.31;;;-148.52;73.43
3254;BME280;1639;42.804;23.342;2023-05-09T09:16:10;72848.19;;;-148.52;66.69
3254;BME280;1639;42.804;23.342;2023-05-09T09:18:38;72854.41;;;-148.52;67.17
3254;BME280;1639;42.804;23.342;2023-05-09T09:21:09;72848.19;;;-148.52;67.02
3254;BME280;1639;42.804;23.342;2023-05-09T09:23:38;72802.69;;;-148.52;68.71
3254;BME280;1639;42.804;23.342;2023-05-09T09:26:05;72771.66;;;-148.52;64.59
3254;BME280;1639;42.804;23.342;2023-05-09T09:28:31;72744.78;;;-148.52;66.94
3254;BME280;1639;42.804;23.342;2023-05-09T09:30:56;72703.44;;;-148.52;66.40
3254;BME280;1639;42.804;23.342;2023-05-09T09:33:23;72740.66;;;-148.52;61.52
3254;BME280;1639;42.804;23.342;2023-05-09T09:35:50;72740.66;;;-148.52;61.17
3254;BME280;1639;42.804;23.342;2023-05-09T09:38:20;72777.88;;;-148.52;61.08
3254;BME280;1639;42.804;23.342;2023-05-09T09:40:55;72788.22;;;-148.52;61.37
3254;BME280;1639;42.804;23.342;2023-05-09T09:43:30;72798.56;;;-148.52;61.83
3254;BME280;1639;42.804;23.342;2023-05-09T09:45:59;72763.41;;;-148.52;60.22
3254;BME280;1639;42.804;23.342;2023-05-09T09:48:26;72744.78;;;-148.52;62.57
3254;BME280;1639;42.804;23.342;2023-05-09T09:50:55;72707.56;;;-148.52;60.48
3254;BME280;1639;42.804;23.342;2023-05-09T09:53:21;72748.91;;;-148.52;60.51
3254;BME280;1639;42.804;23.342;2023-05-09T09:55:49;72728.25;;;-148.52;58.96
3254;BME280;1639;42.804;23.342;2023-05-09T09:58:19;72728.25;;;-148.52;58.56
3254;BME280;1639;42.804;23.342;2023-05-09T10:01:06;72711.69;;;-148.52;57.89
3254;BME280;1639;42.804;23.342;2023-05-09T10:03:39;72695.16;;;-148.52;56.18
3254;BME280;1639;42.804;23.342;2023-05-09T10:06:08;72705.50;;;-148.52;56.15
3254;BME280;1639;42.804;23.342;2023-05-09T10:08:34;72722.03;;;-148.52;54.77
3254;BME280;1639;42.804;23.342;2023-05-09T10:10:59;72734.44;;;-148.52;55.67
3254;BME280;1639;42.804;23.342;2023-05-09T10:13:25;72724.09;;;-148.52;55.50
3254;BME280;1639;42.804;23.342;2023-05-09T10:15:52;72707.56;;;-148.52;55.70
3254;BME280;1639;42.804;23.342;2023-05-09T10:18:22;72719.97;;;-148.52;56.71
3254;BME280;1639;42.804;23.342;2023-05-09T10:20:49;72662.06;;;-148.52;56.12
3254;BME280;1639;42.804;23.342;2023-05-09T10:23:15;72651.72;;;-148.52;55.95
3254;BME280;1639;42.804;23.342;2023-05-09T10:25:50;72647.59;;;-148.52;53.88
3254;BME280;1639;42.804;23.342;2023-05-09T10:28:22;72612.44;;;-148.52;53.83
3254;BME280;1639;42.804;23.342;2023-05-09T10:31:00;72635.19;;;-148.52;54.36
3254;BME280;1639;42.804;23.342;2023-05-09T10:33:42;72604.16;;;-148.52;56.29
3254;BME280;1639;42.804;23.342;2023-05-09T10:36:10;72620.69;;;-148.52;53.46
3254;BME280;1639;42.804;23.342;2023-05-09T10:38:38;72612.44;;;-148.52;53.04
3254;BME280;1639;42.804;23.342;2023-05-09T10:41:03;72645.53;;;-148.52;54.32
3254;BME280;1639;42.804;23.342;2023-05-09T10:43:31;72639.31;;;-148.52;53.34
3254;BME280;1639;42.804;23.342;2023-05-09T10:45:57;72622.78;;;-148.52;55.67
3254;BME280;1639;42.804;23.342;2023-05-09T10:48:23;72616.56;;;-148.52;53.84
3254;BME280;1639;42.804;23.342;2023-05-09T10:50:49;72606.22;;;-148.52;54.39
3254;BME280;1639;42.804;23.342;2023-05-09T10:53:15;72602.09;;;-148.52;53.55
3254;BME280;1639;42.804;23.342;2023-05-09T10:58:31;72653.78;;;-148.52;53.80
3254;BME280;1639;42.804;23.342;2023-05-09T11:01:05;72639.31;;;-148.52;54.02
3254;BME280;1639;42.804;23.342;2023-05-09T11:03:57;72600.03;;;-148.52;54.07
3254;BME280;1639;42.804;23.342;2023-05-09T11:09:26;72626.91;;;-148.52;52.34
3254;BME280;1639;42.804;23.342;2023-05-09T11:11:57;72660.00;;;-148.52;53.71
3254;BME280;1639;42.804;23.342;2023-05-09T11:17:13;72624.84;;;-148.52;52.30
3254;BME280;1639;42.804;23.342;2023-05-09T11:22:20;72674.47;;;-148.52;54.41
3254;BME280;1639;42.804;23.342;2023-05-09T11:24:48;72695.16;;;-148.52;53.37
3254;BME280;1639;42.804;23.342;2023-05-09T11:27:21;72668.28;;;-148.52;55.25
3254;BME280;1639;42.804;23.342;2023-05-09T11:29:57;72645.53;;;-148.52;53.09
3254;BME280;1639;42.804;23.342;2023-05-09T11:32:39;72641.38;;;-148.52;54.58
3254;BME280;1639;42.804;23.342;2023-05-09T11:35:05;72593.81;;;-148.52;52.40
3254;BME280;1639;42.804;23.342;2023-05-09T11:37:31;72653.78;;;-148.52;52.31
3254;BME280;1639;42.804;23.342;2023-05-09T11:39:59;72686.88;;;-148.52;53.96
3254;BME280;1639;42.804;23.342;2023-05-09T11:42:27;72676.53;;;-148.52;54.42
3254;BME280;1639;42.804;23.342;2023-05-09T11:44:53;72674.47;;;-148.52;52.72
3254;BME280;1639;42.804;23.342;2023-05-09T11:47:19;72682.75;;;-148.52;52.78
3254;BME280;1639;42.804;23.342;2023-05-09T11:49:46;72674.47;;;-148.52;53.10
3254;BME280;1639;42.804;23.342;2023-05-09T11:52:12;72686.88;;;-148.52;54.74
3254;BME280;1639;42.804;23.342;2023-05-09T11:54:38;72691.00;;;-148.52;55.05
3254;BME280;1639;42.804;23.342;2023-05-09T11:57:04;72701.34;;;-148.52;54.09
3254;BME280;1639;42.804;23.342;2023-05-09T11:59:30;72715.84;;;-148.52;53.12
3254;BME280;1639;42.804;23.342;2023-05-09T12:01:56;72728.25;;;-148.52;54.36
3254;BME280;1639;42.804;23.342;2023-05-09T12:04:21;72717.91;;;-148.52;53.88
3254;BME280;1639;42.804;23.342;2023-05-09T12:06:47;72699.28;;;-148.52;53.67
3254;BME280;1639;42.804;23.342;2023-05-09T12:09:13;72765.47;;;-148.52;54.66
3254;BME280;1639;42.804;23.342;2023-05-09T12:11:49;72761.34;;;-148.52;54.89
3254;BME280;1639;42.804;23.342;2023-05-09T12:14:28;72753.06;;;-148.52;55.67
3254;BME280;1639;42.804;23.342;2023-05-09T12:16:54;72786.16;;;-148.52;55.34
3254;BME280;1639;42.804;23.342;2023-05-09T12:19:21;72829.56;;;-148.52;57.11
3254;BME280;1639;42.804;23.342;2023-05-09T12:21:47;72852.31;;;-148.52;57.74
3254;BME280;1639;42.804;23.342;2023-05-09T12:24:12;72819.25;;;-148.52;57.38
3254;BME280;1639;42.804;23.342;2023-05-09T12:26:38;72858.53;;;-148.52;58.08
3254;BME280;1639;42.804;23.342;2023-05-09T12:29:04;72862.66;;;-148.52;58.71
3254;BME280;1639;42.804;23.342;2023-05-09T12:31:30;72833.72;;;-148.52;57.61
3254;BME280;1639;42.804;23.342;2023-05-09T12:33:55;72821.31;;;-148.52;56.63
3254;BME280;1639;42.804;23.342;2023-05-09T12:36:21;72788.22;;;-148.52;57.09
3254;BME280;1639;42.804;23.342;2023-05-09T12:38:54;72796.50;;;-148.52;57.29
3254;BME280;1639;42.804;23.342;2023-05-09T12:41:20;72777.88;;;-148.52;56.54
3254;BME280;1639;42.804;23.342;2023-05-09T12:43:47;72788.22;;;-148.52;56.22
3254;BME280;1639;42.804;23.342;2023-05-09T12:46:17;72815.09;;;-148.52;58.08
3254;BME280;1639;42.804;23.342;2023-05-09T12:48:43;72827.50;;;-148.52;58.22
3254;BME280;1639;42.804;23.342;2023-05-09T12:51:08;72844.06;;;-148.52;57.32
3254;BME280;1639;42.804;23.342;2023-05-09T12:53:39;72825.44;;;-148.52;55.98
3254;BME280;1639;42.804;23.342;2023-05-09T12:56:13;72831.66;;;-148.52;56.90
3254;BME280;1639;42.804;23.342;2023-05-09T12:58:54;72823.38;;;-148.52;57.11
3254;BME280;1639;42.804;23.342;2023-05-09T13:01:25;72825.44;;;-148.52;57.57
3254;BME280;1639;42.804;23.342;2023-05-09T13:03:58;72839.91;;;-148.52;57.21